createdAt,value
2022-10-29T00:00:52.604Z,16.48
2022-10-29T00:03:19.741Z,11.93
2022-10-29T00:05:55.650Z,13.27
2022-10-29T00:08:22.211Z,9.13
2022-10-29T00:10:48.688Z,10.23
2022-10-29T00:13:15.196Z,10.95
2022-10-29T00:15:41.797Z,6.25
2022-10-29T00:18:08.322Z,11.43
2022-10-29T00:20:34.838Z,10.55
2022-10-29T00:23:01.331Z,12.05
2022-10-29T00:25:27.863Z,9.60
2022-10-29T00:27:56.196Z,8.88
2022-10-29T00:30:22.717Z,11.90
2022-10-29T00:32:49.244Z,9.93
2022-10-29T00:35:15.790Z,11.70
2022-10-29T00:37:42.340Z,11.27
2022-10-29T00:40:09.570Z,14.48
2022-10-29T00:42:36.143Z,12.63
2022-10-29T00:45:02.653Z,9.43
2022-10-29T00:47:34.723Z,12.15
2022-10-29T00:50:06.947Z,13.75
2022-10-29T00:52:34.783Z,11.38
2022-10-29T00:55:03.939Z,10.90
2022-10-29T00:57:35.880Z,12.05
2022-10-29T01:00:02.524Z,15.82
2022-10-29T01:02:29.970Z,8.77
2022-10-29T01:04:56.679Z,15.38
2022-10-29T01:07:23.214Z,14.18
2022-10-29T01:09:50.075Z,17.75
2022-10-29T01:12:33.881Z,17.60
2022-10-29T01:15:23.159Z,10.55
2022-10-29T01:17:59.758Z,12.98
2022-10-29T01:20:46.247Z,16.15
2022-10-29T01:24:00.603Z,15.43
2022-10-29T01:26:45.279Z,9.18
2022-10-29T01:29:20.607Z,18.58
2022-10-29T01:31:57.658Z,14.85
2022-10-29T01:34:40.152Z,13.15
2022-10-29T01:37:15.888Z,5.80
2022-10-29T01:39:52.293Z,7.05
2022-10-29T01:42:24.122Z,7.03
2022-10-29T01:44:58.664Z,6.30
2022-10-29T01:47:29.037Z,11.32
2022-10-29T01:50:00.264Z,11.85
2022-10-29T01:52:29.003Z,13.57
2022-10-29T01:54:55.535Z,9.15
2022-10-29T01:57:31.623Z,8.43
2022-10-29T02:00:01.823Z,7.65
2022-10-29T02:03:02.424Z,8.90
2022-10-29T02:05:39.352Z,6.78
2022-10-29T02:08:31.510Z,13.23
2022-10-29T02:11:13.793Z,10.43
2022-10-29T02:14:14.926Z,14.80
2022-10-29T02:16:41.870Z,10.70
2022-10-29T02:19:08.416Z,14.93
2022-10-29T02:21:34.914Z,19.17
2022-10-29T02:24:01.454Z,15.90
2022-10-29T02:26:27.991Z,20.10
2022-10-29T02:28:54.509Z,18.02
2022-10-29T02:31:21.060Z,16.45
2022-10-29T02:33:47.564Z,22.38
2022-10-29T02:36:14.112Z,19.15
2022-10-29T02:38:40.650Z,24.27
2022-10-29T02:41:07.218Z,10.25
2022-10-29T02:43:33.740Z,11.13
2022-10-29T02:46:17.142Z,14.32
2022-10-29T02:48:43.711Z,16.60
2022-10-29T02:51:10.443Z,14.55
2022-10-29T02:53:37.204Z,15.82
2022-10-29T02:56:04.693Z,14.07
2022-10-29T02:58:31.360Z,11.52
2022-10-29T03:00:57.909Z,27.63
2022-10-29T03:03:24.777Z,38.22
2022-10-29T03:05:51.486Z,30.95
2022-10-29T03:08:18.062Z,23.67
2022-10-29T03:10:44.561Z,33.60
2022-10-29T03:13:11.272Z,25.67
2022-10-29T03:15:38.533Z,44.95
2022-10-29T03:18:05.172Z,46.92
2022-10-29T03:20:31.700Z,40.65
2022-10-29T03:22:58.175Z,27.88
2022-10-29T03:25:24.663Z,32.75
2022-10-29T03:27:51.735Z,32.05
2022-10-29T03:30:18.225Z,31.33
2022-10-29T03:32:46.304Z,16.55
2022-10-29T03:35:14.557Z,12.98
2022-10-29T03:37:41.238Z,9.73
2022-10-29T03:40:08.781Z,26.08
2022-10-29T03:42:35.315Z,12.02
2022-10-29T03:45:02.184Z,12.90
2022-10-29T03:47:29.232Z,11.77
2022-10-29T03:49:56.017Z,12.35
2022-10-29T03:52:22.512Z,8.38
2022-10-29T03:54:49.035Z,20.35
2022-10-29T03:57:15.523Z,11.27
2022-10-29T03:59:42.026Z,19.52
2022-10-29T04:02:09.767Z,22.77
2022-10-29T04:04:36.400Z,24.08
2022-10-29T04:07:02.900Z,14.75
2022-10-29T04:09:29.754Z,13.02
2022-10-29T04:11:56.247Z,14.32
2022-10-29T04:14:22.760Z,14.52
2022-10-29T04:16:49.248Z,11.90
2022-10-29T04:19:15.832Z,14.32
2022-10-29T04:28:40.820Z,19.58
2022-10-29T04:30:02.740Z,15.32
2022-10-29T04:32:29.345Z,16.90
2022-10-29T04:34:55.844Z,22.67
2022-10-29T04:37:22.342Z,22.20
2022-10-29T04:39:49.312Z,26.80
2022-10-29T04:42:15.858Z,19.90
2022-10-29T04:44:42.365Z,28.58
2022-10-29T04:47:08.863Z,22.13
2022-10-29T04:49:35.383Z,20.45
2022-10-29T04:52:01.871Z,21.40
2022-10-29T04:54:28.412Z,24.58
2022-10-29T04:56:55.021Z,24.60
2022-10-29T04:59:21.532Z,21.80
2022-10-29T05:01:48.059Z,24.27
2022-10-29T05:04:14.576Z,27.35
2022-10-29T05:06:41.133Z,25.77
2022-10-29T05:09:07.621Z,23.48
2022-10-29T05:11:34.112Z,22.75
2022-10-29T05:14:00.607Z,19.10
2022-10-29T05:16:27.108Z,26.58
2022-10-29T05:18:53.641Z,28.75
2022-10-29T05:21:20.158Z,27.27
2022-10-29T05:23:46.702Z,20.83
2022-10-29T05:26:13.195Z,20.92
2022-10-29T05:28:39.728Z,30.02
2022-10-29T05:31:06.251Z,27.02
2022-10-29T05:33:32.778Z,19.00
2022-10-29T05:36:00.968Z,33.33
2022-10-29T05:38:27.499Z,37.85
2022-10-29T05:40:53.993Z,27.15
2022-10-29T05:43:20.503Z,32.97
2022-10-29T05:45:47.249Z,35.47
2022-10-29T05:48:13.997Z,35.92
2022-10-29T05:50:40.689Z,22.63
2022-10-29T05:53:10.450Z,24.00
2022-10-29T05:55:37.516Z,18.75
2022-10-29T05:58:06.313Z,22.85
2022-10-29T06:00:35.575Z,25.30
2022-10-29T06:03:02.285Z,31.60
2022-10-29T06:05:29.172Z,24.60
2022-10-29T06:07:57.334Z,27.60
2022-10-29T06:10:25.461Z,30.83
2022-10-29T06:12:51.992Z,29.55
2022-10-29T06:15:18.839Z,31.08
2022-10-29T06:17:45.835Z,32.13
2022-10-29T06:20:14.420Z,25.08
2022-10-29T06:22:40.918Z,32.30
2022-10-29T06:25:08.169Z,22.83
2022-10-29T06:27:34.677Z,23.95
2022-10-29T06:30:01.197Z,25.25
2022-10-29T06:32:27.691Z,26.38
2022-10-29T06:34:54.183Z,30.00
2022-10-29T06:37:20.680Z,24.17
2022-10-29T06:39:47.203Z,27.35
2022-10-29T06:42:13.689Z,34.08
2022-10-29T06:44:40.237Z,19.27
2022-10-29T06:47:06.815Z,30.73
2022-10-29T06:49:33.360Z,26.15
2022-10-29T06:51:59.845Z,20.08
2022-10-29T06:54:26.345Z,31.65
2022-10-29T06:56:52.867Z,29.27
2022-10-29T06:59:19.357Z,26.15
2022-10-29T07:01:46.632Z,24.67
2022-10-29T07:04:13.318Z,30.95
2022-10-29T07:06:39.827Z,27.17
2022-10-29T07:09:06.394Z,27.75
2022-10-29T07:11:32.906Z,24.70
2022-10-29T07:13:59.453Z,21.55
2022-10-29T07:16:26.081Z,21.05
2022-10-29T07:18:53.783Z,22.27
2022-10-29T07:21:20.279Z,25.05
2022-10-29T07:23:46.827Z,23.65
2022-10-29T07:26:13.351Z,27.55
2022-10-29T07:28:39.847Z,28.48
2022-10-29T07:31:07.677Z,28.25
2022-10-29T07:33:34.260Z,23.83
2022-10-29T07:36:00.744Z,24.13
2022-10-29T07:38:27.353Z,27.92
2022-10-29T07:40:54.192Z,25.10
2022-10-29T07:43:21.609Z,24.35
2022-10-29T07:45:52.222Z,26.60
2022-10-29T07:48:20.118Z,23.50
2022-10-29T07:50:47.621Z,30.77
2022-10-29T07:53:14.206Z,23.02
2022-10-29T07:55:40.721Z,27.08
2022-10-29T07:58:10.119Z,24.98
2022-10-29T08:00:38.343Z,23.48
2022-10-29T08:03:05.618Z,29.52
2022-10-29T08:05:32.228Z,29.38
2022-10-29T08:07:59.931Z,29.83
2022-10-29T08:10:27.193Z,26.45
2022-10-29T08:12:56.203Z,29.92
2022-10-29T08:15:23.535Z,30.83
2022-10-29T08:17:50.161Z,27.65
2022-10-29T08:20:17.452Z,29.83
2022-10-29T08:22:43.984Z,33.35
2022-10-29T08:25:11.143Z,33.20
2022-10-29T08:27:37.860Z,30.27
2022-10-29T08:30:05.929Z,30.48
2022-10-29T08:32:32.429Z,29.92
2022-10-29T08:34:58.947Z,27.25
2022-10-29T08:37:25.452Z,32.38
2022-10-29T08:39:51.992Z,35.75
2022-10-29T08:42:30.529Z,29.98
2022-10-29T08:45:17.579Z,29.30
2022-10-29T08:48:16.592Z,33.55
2022-10-29T08:50:48.478Z,37.22
2022-10-29T08:53:23.885Z,34.58
2022-10-29T08:55:51.734Z,33.38
2022-10-29T08:58:35.279Z,30.05
2022-10-29T09:01:01.915Z,33.78
2022-10-29T09:03:31.812Z,38.97
2022-10-29T09:06:08.705Z,37.63
2022-10-29T09:08:47.248Z,32.83
2022-10-29T09:11:58.163Z,43.53
2022-10-29T09:14:35.115Z,34.10
2022-10-29T09:17:23.138Z,38.28
2022-10-29T09:20:18.303Z,36.55
2022-10-29T09:23:37.261Z,37.22
2022-10-29T09:26:06.076Z,38.72
2022-10-29T09:28:41.732Z,36.47
2022-10-29T09:31:21.380Z,30.48
2022-10-29T09:33:50.608Z,31.42
2022-10-29T09:36:23.280Z,32.05
2022-10-29T09:39:04.512Z,30.65
2022-10-29T09:41:33.015Z,25.73
2022-10-29T09:44:03.639Z,29.70
2022-10-29T09:46:40.557Z,29.35
2022-10-29T09:49:18.823Z,31.90
2022-10-29T09:51:51.899Z,31.63
2022-10-29T09:54:18.512Z,25.48
2022-10-29T09:56:47.176Z,25.95
2022-10-29T09:59:26.912Z,27.15
2022-10-29T10:01:53.542Z,24.83
2022-10-29T10:04:37.635Z,31.98
2022-10-29T10:07:08.299Z,26.65
2022-10-29T10:09:56.338Z,26.60
2022-10-29T10:12:26.388Z,27.95
2022-10-29T10:15:04.941Z,21.90
2022-10-29T10:18:00.845Z,23.02
2022-10-29T10:20:39.950Z,21.58
2022-10-29T10:23:22.863Z,27.42
2022-10-29T10:25:50.519Z,20.80
2022-10-29T10:28:21.389Z,19.85
2022-10-29T10:31:08.173Z,23.90
2022-10-29T10:33:37.121Z,24.65
2022-10-29T10:36:08.583Z,23.63
2022-10-29T10:38:40.323Z,20.67
2022-10-29T10:41:08.120Z,24.55
2022-10-29T10:43:34.910Z,26.58
2022-10-29T10:46:05.756Z,30.65
2022-10-29T10:48:34.151Z,31.35
2022-10-29T10:51:21.505Z,25.67
2022-10-29T10:53:48.887Z,27.52
2022-10-29T10:56:20.908Z,27.17
2022-10-29T10:58:59.418Z,32.05
2022-10-29T11:01:38.535Z,37.63
2022-10-29T11:04:21.702Z,27.08
2022-10-29T11:06:51.755Z,23.42
2022-10-29T11:09:28.928Z,26.65
2022-10-29T11:12:24.266Z,27.58
2022-10-29T11:15:00.415Z,24.80
2022-10-29T11:17:35.072Z,27.92
2022-10-29T11:20:16.333Z,21.27
2022-10-29T11:22:48.872Z,30.30
2022-10-29T11:25:26.623Z,23.73
2022-10-29T11:28:11.814Z,29.58
2022-10-29T11:30:48.733Z,26.40
2022-10-29T11:33:37.877Z,31.52
2022-10-29T11:36:21.000Z,34.75
2022-10-29T11:39:09.540Z,35.50
2022-10-29T11:41:58.015Z,27.58
2022-10-29T11:44:24.714Z,33.58
2022-10-29T11:47:06.348Z,27.88
2022-10-29T11:49:42.516Z,29.60
2022-10-29T11:52:21.473Z,28.58
2022-10-29T11:55:10.727Z,24.80
2022-10-29T11:57:44.214Z,23.83
2022-10-29T12:00:16.714Z,25.55
2022-10-29T12:03:07.873Z,25.13
2022-10-29T12:06:03.999Z,23.33
2022-10-29T12:08:36.439Z,23.67
2022-10-29T12:11:18.096Z,25.55
2022-10-29T12:14:08.691Z,28.58
2022-10-29T12:16:41.337Z,30.38
2022-10-29T12:19:35.659Z,23.73
2022-10-29T12:22:14.918Z,29.13
2022-10-29T12:25:16.858Z,24.10
2022-10-29T12:28:01.355Z,26.60
2022-10-29T12:30:31.123Z,20.95
2022-10-29T12:33:09.622Z,29.38
2022-10-29T12:35:45.933Z,28.17
2022-10-29T12:38:23.397Z,24.80
2022-10-29T12:40:53.484Z,28.30
2022-10-29T12:43:24.699Z,24.40
2022-10-29T12:46:25.280Z,24.33
2022-10-29T12:49:17.142Z,28.02
2022-10-29T12:51:59.772Z,23.02
2022-10-29T12:54:45.398Z,28.67
2022-10-29T12:57:14.915Z,21.85
2022-10-29T12:59:42.826Z,27.17
2022-10-29T13:02:21.486Z,29.52
2022-10-29T13:05:06.052Z,23.27
2022-10-29T13:07:33.690Z,26.52
2022-10-29T13:10:21.876Z,26.48
2022-10-29T13:13:16.219Z,44.83
2022-10-29T13:16:01.326Z,25.10
2022-10-29T13:18:37.686Z,24.13
2022-10-29T13:21:07.715Z,25.98
2022-10-29T13:28:48.437Z,28.17
2022-10-29T13:31:14.847Z,25.13
2022-10-29T13:33:41.268Z,27.23
2022-10-29T13:36:16.869Z,26.35
2022-10-29T13:39:04.585Z,28.63
2022-10-29T13:41:42.595Z,28.00
2022-10-29T13:44:10.779Z,25.13
2022-10-29T13:46:45.540Z,31.92
2022-10-29T13:49:16.533Z,29.60
2022-10-29T13:51:49.912Z,27.38
2022-10-29T13:57:06.707Z,32.00
2022-10-29T13:59:45.737Z,24.08
2022-10-29T14:02:34.343Z,28.52
2022-10-29T14:05:07.348Z,27.42
2022-10-29T14:07:41.020Z,31.30
2022-10-29T14:10:17.249Z,29.20
2022-10-29T14:12:46.768Z,20.98
2022-10-29T14:15:14.895Z,21.58
2022-10-29T14:17:41.727Z,25.80
2022-10-29T14:20:20.543Z,27.27
2022-10-29T14:22:47.085Z,30.00
2022-10-29T14:25:32.926Z,26.88
2022-10-29T14:28:27.192Z,26.50
2022-10-29T14:31:12.501Z,24.33
2022-10-29T14:33:40.892Z,29.33
2022-10-29T14:36:28.411Z,27.65
2022-10-29T14:39:01.781Z,26.13
2022-10-29T14:41:29.828Z,26.63
2022-10-29T14:44:07.214Z,27.17
2022-10-29T14:46:35.499Z,27.20
2022-10-29T14:49:12.504Z,26.80
2022-10-29T14:51:41.785Z,24.90
2022-10-29T14:54:09.526Z,29.42
2022-10-29T14:56:38.924Z,29.30
2022-10-29T14:59:19.276Z,22.00
2022-10-29T15:01:56.789Z,27.33
2022-10-29T15:04:26.249Z,24.98
2022-10-29T15:06:57.136Z,22.73
2022-10-29T15:09:28.051Z,24.58
2022-10-29T15:12:08.649Z,23.10
2022-10-29T15:14:47.555Z,18.17
2022-10-29T15:17:29.276Z,22.73
2022-10-29T15:20:03.630Z,26.35
2022-10-29T15:22:38.441Z,25.52
2022-10-29T15:25:07.624Z,22.38
2022-10-29T15:27:37.310Z,18.45
2022-10-29T15:30:04.516Z,19.20
2022-10-29T15:32:31.635Z,22.27
2022-10-29T15:34:59.283Z,20.13
2022-10-29T15:37:26.926Z,22.55
2022-10-29T15:39:59.541Z,25.80
2022-10-29T15:42:32.064Z,19.97
2022-10-29T15:45:07.408Z,17.85
2022-10-29T15:47:38.792Z,37.13
2022-10-29T15:50:07.479Z,20.08
2022-10-29T15:52:37.844Z,21.40
2022-10-29T15:55:11.597Z,21.88
2022-10-29T15:57:38.129Z,21.55
2022-10-29T16:00:06.407Z,19.38
2022-10-29T16:02:33.150Z,23.33
2022-10-29T16:04:59.852Z,24.48
2022-10-29T16:07:26.368Z,23.00
2022-10-29T16:09:53.981Z,20.88
2022-10-29T16:12:20.517Z,25.75
2022-10-29T16:14:47.054Z,15.88
2022-10-29T16:17:18.272Z,15.43
2022-10-29T16:19:44.831Z,18.20
2022-10-29T16:22:13.808Z,17.00
2022-10-29T16:24:41.090Z,21.30
2022-10-29T16:27:18.332Z,21.25
2022-10-29T16:29:46.985Z,21.38
2022-10-29T16:32:15.202Z,22.50
2022-10-29T16:34:41.704Z,23.00
2022-10-29T16:37:13.076Z,15.60
2022-10-29T16:39:40.046Z,20.90
2022-10-29T16:42:06.552Z,21.70
2022-10-29T16:44:33.137Z,16.98
2022-10-29T16:47:00.574Z,17.80
2022-10-29T16:49:27.060Z,17.80
2022-10-29T16:51:53.592Z,23.40
2022-10-29T16:54:20.092Z,18.63
2022-10-29T16:56:47.361Z,20.83
2022-10-29T16:59:13.860Z,24.10
2022-10-29T17:01:40.364Z,19.60
2022-10-29T17:04:08.159Z,20.20
2022-10-29T17:06:34.756Z,22.60
2022-10-29T17:09:01.232Z,17.25
2022-10-29T17:11:27.778Z,19.55
2022-10-29T17:13:54.273Z,20.17
2022-10-29T17:16:20.808Z,23.20
2022-10-29T17:18:50.700Z,22.88
2022-10-29T17:21:17.703Z,20.63
2022-10-29T17:23:44.244Z,19.40
2022-10-29T17:26:10.735Z,21.00
2022-10-29T17:28:38.501Z,28.73
2022-10-29T17:31:06.682Z,24.85
2022-10-29T17:33:33.213Z,22.33
2022-10-29T17:36:05.076Z,24.88
2022-10-29T17:38:31.699Z,16.10
2022-10-29T17:40:58.307Z,17.55
2022-10-29T17:43:24.806Z,20.38
2022-10-29T17:45:51.316Z,17.65
2022-10-29T17:48:21.017Z,22.08
2022-10-29T17:50:58.254Z,18.73
2022-10-29T17:53:26.088Z,20.92
2022-10-29T17:55:52.595Z,21.73
2022-10-29T17:58:20.021Z,21.23
2022-10-29T18:00:48.421Z,18.88
2022-10-29T18:03:15.058Z,17.55
2022-10-29T18:05:41.593Z,24.75
2022-10-29T18:08:08.124Z,20.58
2022-10-29T18:10:34.832Z,15.25
2022-10-29T18:13:01.456Z,19.23
2022-10-29T18:15:28.263Z,22.17
2022-10-29T18:17:54.877Z,23.73
2022-10-29T18:20:21.391Z,20.83
2022-10-29T18:22:51.825Z,20.60
2022-10-29T18:25:19.835Z,23.48
2022-10-29T18:27:46.422Z,23.98
2022-10-29T18:30:12.962Z,25.55
2022-10-29T18:32:39.560Z,23.33
2022-10-29T18:35:06.557Z,22.27
2022-10-29T18:37:33.337Z,26.30
2022-10-29T18:39:59.923Z,19.08
2022-10-29T18:42:26.410Z,19.73
2022-10-29T18:44:52.907Z,22.50
2022-10-29T18:47:19.404Z,16.73
2022-10-29T18:49:46.017Z,25.58
2022-10-29T18:52:12.500Z,21.92
2022-10-29T18:54:39.112Z,20.77
2022-10-29T18:57:05.817Z,22.23
2022-10-29T18:59:32.303Z,18.50
2022-10-29T19:01:58.960Z,25.65
2022-10-29T19:04:25.520Z,25.45
2022-10-29T19:06:53.820Z,23.42
2022-10-29T19:09:20.610Z,20.35
2022-10-29T19:11:51.659Z,27.13
2022-10-29T19:14:20.304Z,29.10
2022-10-29T19:16:46.891Z,24.10
2022-10-29T19:19:13.979Z,25.35
2022-10-29T19:21:43.007Z,24.63
2022-10-29T19:24:13.459Z,25.35
2022-10-29T19:26:40.067Z,24.40
2022-10-29T19:29:07.633Z,22.13
2022-10-29T19:31:35.211Z,28.48
2022-10-29T19:34:04.140Z,21.75
2022-10-29T19:36:30.652Z,23.30
2022-10-29T19:38:58.340Z,20.98
2022-10-29T19:41:24.951Z,20.45
2022-10-29T19:43:51.533Z,21.33
2022-10-29T19:46:22.710Z,25.63
2022-10-29T19:48:50.892Z,22.33
2022-10-29T19:51:18.101Z,21.90
2022-10-29T19:53:44.922Z,22.55
2022-10-29T19:56:13.214Z,22.08
2022-10-29T19:58:39.772Z,23.73
2022-10-29T20:01:09.192Z,23.67
2022-10-29T20:03:36.248Z,23.20
2022-10-29T20:06:02.888Z,23.58
2022-10-29T20:08:29.781Z,20.95
2022-10-29T20:10:57.257Z,24.60
2022-10-29T20:13:24.017Z,25.95
2022-10-29T20:15:51.468Z,20.42
2022-10-29T20:18:20.808Z,27.02
2022-10-29T20:20:54.321Z,21.02
2022-10-29T20:25:47.377Z,21.50
2022-10-29T20:28:13.893Z,24.52
2022-10-29T20:30:40.389Z,25.48
2022-10-29T20:33:06.880Z,27.20
2022-10-29T20:35:33.374Z,23.48
2022-10-29T20:38:00.212Z,23.70
2022-10-29T20:40:27.002Z,20.10
2022-10-29T20:42:53.577Z,23.05
2022-10-29T20:45:20.123Z,27.05
2022-10-29T20:47:46.676Z,31.35
2022-10-29T20:50:13.243Z,22.65
2022-10-29T20:52:43.181Z,25.67
2022-10-29T20:55:12.304Z,23.73
2022-10-29T20:57:38.785Z,24.08
2022-10-29T21:00:05.901Z,20.95
2022-10-29T21:02:32.452Z,22.15
2022-10-29T21:04:59.037Z,22.27
2022-10-29T21:07:25.537Z,17.90
2022-10-29T21:09:52.072Z,21.10
2022-10-29T21:12:18.556Z,22.75
2022-10-29T21:14:45.057Z,19.88
2022-10-29T21:17:11.671Z,19.38
2022-10-29T21:19:38.152Z,22.35
2022-10-29T21:22:04.788Z,25.77
2022-10-29T21:24:31.358Z,28.20
2022-10-29T21:26:57.856Z,21.75
2022-10-29T21:29:24.470Z,22.45
2022-10-29T21:31:50.958Z,28.23
2022-10-29T21:34:17.499Z,25.45
2022-10-29T21:36:43.983Z,23.83
2022-10-29T21:39:10.508Z,19.48
2022-10-29T21:41:36.993Z,21.55
2022-10-29T21:44:03.571Z,22.25
2022-10-29T21:46:30.068Z,18.65
2022-10-29T21:48:56.663Z,20.30
2022-10-29T21:51:23.193Z,24.95
2022-10-29T21:53:49.696Z,24.80
2022-10-29T21:56:16.299Z,28.20
2022-10-29T21:58:43.430Z,25.00
2022-10-29T22:01:14.940Z,21.95
2022-10-29T22:03:43.518Z,18.40
2022-10-29T22:06:11.507Z,17.92
2022-10-29T22:08:38.332Z,22.13
2022-10-29T22:11:05.207Z,22.42
2022-10-29T22:13:32.615Z,23.02
2022-10-29T22:15:59.492Z,21.70
2022-10-29T22:18:26.598Z,26.70
2022-10-29T22:21:23.690Z,19.75
2022-10-29T22:23:54.897Z,24.58
2022-10-29T22:26:23.942Z,27.50
2022-10-29T22:28:50.549Z,26.92
2022-10-29T22:31:18.387Z,25.27
2022-10-29T22:33:45.059Z,25.42
2022-10-29T22:36:19.925Z,24.33
2022-10-29T22:38:46.489Z,36.45
2022-10-29T22:41:15.168Z,19.63
2022-10-29T22:43:41.872Z,24.13
2022-10-29T22:46:09.036Z,24.65
2022-10-29T22:48:35.863Z,22.15
2022-10-29T22:51:07.983Z,24.20
2022-10-29T22:53:34.531Z,18.77
2022-10-29T22:56:01.516Z,21.50
2022-10-29T22:58:28.240Z,27.15
2022-10-29T23:01:09.828Z,23.73
2022-10-29T23:03:38.336Z,23.52
2022-10-29T23:06:06.532Z,23.77
2022-10-29T23:08:33.275Z,26.77
2022-10-29T23:11:04.788Z,27.80
2022-10-29T23:13:31.514Z,22.13
2022-10-29T23:15:58.008Z,27.40
2022-10-29T23:18:24.556Z,23.30
2022-10-29T23:20:59.420Z,21.00
2022-10-29T23:23:25.981Z,24.13
2022-10-29T23:25:52.551Z,23.95
2022-10-29T23:28:19.050Z,26.17
2022-10-29T23:30:54.885Z,25.42
2022-10-29T23:33:21.880Z,25.38
2022-10-29T23:35:48.429Z,23.20
2022-10-29T23:38:15.145Z,29.38
2022-10-29T23:40:45.784Z,23.58
2022-10-29T23:43:12.879Z,24.77
2022-10-29T23:45:42.813Z,24.65
2022-10-29T23:48:09.816Z,20.45
2022-10-29T23:50:37.042Z,24.83
2022-10-29T23:53:04.193Z,23.77
2022-10-29T23:55:30.813Z,26.35
2022-10-29T23:57:57.305Z,23.17
